Time;durP1;ratioP1;P1;durP2;ratioP2;P2;SDS_P1;SDS_P2;PMS_P1;PMS_P2;Temp;Humidity;BMP_temperature;BMP_pressure;BME280_temperature;BME280_humidity;BME280_pressure;Samples;Min_cycle;Max_cycle;Signal;HPM_P1;HPM_P2
2022/11/02 00:00:54;;;;;;;;;;;20.60;74.30;;;;;;5018944;28;839;-69
2022/11/02 00:03:20;;;;;;;;;;;20.60;74.30;;;;;;5022086;28;790;-70
2022/11/02 00:05:45;;;;;;;;;;;20.60;74.30;;;;;;5040383;28;1288;-68
2022/11/02 00:08:10;;;;;;;;;;;20.60;74.30;;;;;;5037391;28;919;-70
2022/11/02 00:10:36;;;;;;;;;;;20.60;74.30;;;;;;5040875;28;1894;-69
2022/11/02 00:13:01;;;;;;;;;;;20.60;74.30;;;;;;5042603;28;1053;-69
2022/11/02 00:15:27;;;;;;;;;;;20.60;74.30;;;;;;5019463;28;1200;-69
2022/11/02 00:17:54;;;;;;;;;;;20.60;74.30;;;;;;5021987;28;904;-70
2022/11/02 00:20:19;;;;;;;;;;;20.60;74.30;;;;;;5039781;28;1271;-69
2022/11/02 00:22:45;;;;;;;;;;;20.60;75.10;;;;;;5037981;28;859;-69
2022/11/02 00:25:11;;;;;;;;;;;20.60;74.30;;;;;;5020593;28;1351;-68
2022/11/02 00:27:37;;;;;;;;;;;20.60;74.30;;;;;;5038108;28;903;-69
2022/11/02 00:30:03;;;;;;;;;;;20.60;74.30;;;;;;5040746;28;890;-69
2022/11/02 00:32:28;;;;;;;;;;;20.60;74.30;;;;;;5038156;28;1902;-69
2022/11/02 00:34:53;;;;;;;;;;;20.60;74.30;;;;;;5034846;28;1389;-69
2022/11/02 00:37:19;;;;;;;;;;;20.60;74.30;;;;;;5038246;28;1090;-70
2022/11/02 00:39:44;;;;;;;;;;;20.60;74.30;;;;;;5039340;28;1530;-68
2022/11/02 00:42:10;;;;;;;;;;;20.60;74.30;;;;;;5038888;28;857;-69
2022/11/02 00:44:35;;;;;;;;;;;20.60;74.30;;;;;;5038891;28;1295;-70
2022/11/02 00:47:01;;;;;;;;;;;20.60;74.30;;;;;;5040119;28;1006;-68
2022/11/02 00:49:26;;;;;;;;;;;20.60;74.30;;;;;;5039910;28;1188;-69
2022/11/02 00:51:51;;;;;;;;;;;20.60;74.30;;;;;;5055253;28;1949;-69
2022/11/02 00:54:17;;;;;;;;;;;20.60;74.30;;;;;;5037337;28;930;-68
2022/11/02 00:56:42;;;;;;;;;;;20.60;74.40;;;;;;5036928;28;1315;-69
2022/11/02 00:59:08;;;;;;;;;;;20.60;74.30;;;;;;5038635;28;1001;-69
2022/11/02 01:01:33;;;;;;;;;;;20.60;74.30;;;;;;5035277;28;921;-69
2022/11/02 01:03:59;;;;;;;;;;;20.60;74.30;;;;;;5035431;28;1050;-70
2022/11/02 01:06:24;;;;;;;;;;;20.60;74.30;;;;;;5034962;28;1334;-69
2022/11/02 01:08:49;;;;;;;;;;;20.60;74.30;;;;;;5038958;28;928;-69
2022/11/02 01:11:19;;;;;;;;;;;20.60;74.40;;;;;;5038273;28;1902;-70
2022/11/02 01:13:44;;;;;;;;;;;20.60;74.30;;;;;;5020214;28;852;-69
2022/11/02 01:16:10;;;;;;;;;;;20.60;74.30;;;;;;5038208;28;1355;-68
2022/11/02 01:18:35;;;;;;;;;;;20.60;74.30;;;;;;5040116;28;895;-69
2022/11/02 01:21:01;;;;;;;;;;;20.60;74.40;;;;;;5036118;28;1431;-69
2022/11/02 01:23:26;;;;;;;;;;;20.50;74.30;;;;;;5039519;28;1096;-68
2022/11/02 01:25:51;;;;;;;;;;;20.60;74.30;;;;;;5021069;28;1375;-69
2022/11/02 01:28:17;;;;;;;;;;;20.60;74.30;;;;;;5042754;28;837;-69
2022/11/02 01:30:42;;;;;;;;;;;20.50;74.30;;;;;;5043708;28;1906;-69
2022/11/02 01:33:08;;;;;;;;;;;20.50;74.30;;;;;;5044604;28;1389;-69
2022/11/02 01:35:35;;;;;;;;;;;20.60;74.40;;;;;;5039965;28;1355;-70
2022/11/02 01:38:00;;;;;;;;;;;20.60;74.40;;;;;;5039683;28;943;-68
2022/11/02 01:40:26;;;;;;;;;;;20.50;74.30;;;;;;5039238;28;827;-69
2022/11/02 01:42:51;;;;;;;;;;;20.60;74.40;;;;;;5036800;28;896;-69
2022/11/02 01:45:17;;;;;;;;;;;20.60;75.10;;;;;;5038431;28;1353;-68
2022/11/02 01:47:44;;;;;;;;;;;20.50;74.30;;;;;;5040496;28;950;-69
2022/11/02 01:50:28;;;;;;;;;;;20.50;74.30;;;;;;5041163;28;806;-69
2022/11/02 01:52:53;;;;;;;;;;;20.50;74.30;;;;;;5022472;28;925;-69
2022/11/02 01:55:23;;;;;;;;;;;20.50;74.30;;;;;;5040487;28;1261;-69
2022/11/02 01:57:56;;;;;;;;;;;20.50;74.30;;;;;;5024198;28;824;-69
2022/11/02 02:00:22;;;;;;;;;;;20.50;74.30;;;;;;5022483;28;875;-70
2022/11/02 02:03:01;;;;;;;;;;;20.50;74.30;;;;;;5040298;28;811;-70
2022/11/02 02:05:26;;;;;;;;;;;20.50;74.30;;;;;;5022898;28;1328;-70
2022/11/02 02:07:52;;;;;;;;;;;20.60;74.40;;;;;;5040031;28;855;-68
2022/11/02 02:10:17;;;;;;;;;;;20.60;74.40;;;;;;5039422;28;847;-69
2022/11/02 02:12:43;;;;;;;;;;;20.50;74.30;;;;;;5036684;28;1894;-69
2022/11/02 02:15:08;;;;;;;;;;;20.50;74.30;;;;;;5039745;28;1257;-69
2022/11/02 02:17:46;;;;;;;;;;;20.50;74.30;;;;;;5042407;28;895;-69
2022/11/02 02:20:21;;;;;;;;;;;20.50;74.30;;;;;;5028107;28;988;-69
2022/11/02 02:23:04;;;;;;;;;;;20.50;74.30;;;;;;5038188;28;1218;-69
2022/11/02 02:25:33;;;;;;;;;;;20.50;74.30;;;;;;5024668;28;1374;-70
2022/11/02 02:28:37;;;;;;;;;;;20.60;74.40;;;;;;5042180;28;903;-69
2022/11/02 02:31:11;;;;;;;;;;;20.50;74.30;;;;;;4995599;28;1902;-69
2022/11/02 02:33:45;;;;;;;;;;;20.50;75.10;;;;;;4985232;28;915;-69
2022/11/02 02:36:29;;;;;;;;;;;20.50;74.40;;;;;;5016631;28;1283;-69
2022/11/02 02:38:57;;;;;;;;;;;20.50;74.30;;;;;;5040422;28;831;-70
2022/11/02 02:41:24;;;;;;;;;;;20.50;74.30;;;;;;5041854;28;1002;-69
2022/11/02 02:43:50;;;;;;;;;;;20.50;74.30;;;;;;5035260;28;871;-69
2022/11/02 02:46:33;;;;;;;;;;;20.50;74.30;;;;;;5021684;28;1273;-69
2022/11/02 02:48:58;;;;;;;;;;;20.50;74.30;;;;;;5023031;28;939;-69
2022/11/02 02:51:25;;;;;;;;;;;20.50;74.30;;;;;;5020045;28;1977;-68
2022/11/02 02:53:52;;;;;;;;;;;20.50;74.30;;;;;;5039745;28;828;-69
2022/11/02 02:56:18;;;;;;;;;;;20.50;74.30;;;;;;5018888;28;1338;-68
2022/11/02 02:58:46;;;;;;;;;;;20.60;74.40;;;;;;5039836;28;864;-68
2022/11/02 03:01:12;;;;;;;;;;;20.50;74.30;;;;;;5023921;28;828;-69
2022/11/02 03:03:38;;;;;;;;;;;20.50;74.30;;;;;;5022477;28;863;-68
2022/11/02 03:06:03;;;;;;;;;;;20.50;74.30;;;;;;5039414;28;1289;-69
2022/11/02 03:08:29;;;;;;;;;;;20.60;74.40;;;;;;5038086;28;855;-69
2022/11/02 03:11:14;;;;;;;;;;;20.50;74.30;;;;;;5040217;28;1937;-68
2022/11/02 03:13:47;;;;;;;;;;;20.50;74.40;;;;;;5035839;28;1124;-69
2022/11/02 03:16:15;;;;;;;;;;;20.50;74.30;;;;;;5038728;28;1264;-68
2022/11/02 03:18:52;;;;;;;;;;;20.60;74.40;;;;;;5040631;28;904;-69
2022/11/02 03:21:22;;;;;;;;;;;20.50;74.30;;;;;;5021174;28;1367;-69
2022/11/02 03:23:52;;;;;;;;;;;20.50;74.30;;;;;;5023978;28;1026;-69
2022/11/02 03:26:23;;;;;;;;;;;20.50;74.30;;;;;;5021715;28;1271;-69
2022/11/02 03:28:49;;;;;;;;;;;20.50;74.30;;;;;;5041224;28;840;-69
2022/11/02 03:31:14;;;;;;;;;;;20.50;74.30;;;;;;5041494;28;1961;-69
2022/11/02 03:33:42;;;;;;;;;;;20.50;74.40;;;;;;5042036;28;1037;-69
2022/11/02 03:36:09;;;;;;;;;;;20.50;74.30;;;;;;5022347;28;1288;-69
2022/11/02 03:38:44;;;;;;;;;;;20.50;74.30;;;;;;5023654;28;914;-69
2022/11/02 03:41:10;;;;;;;;;;;20.50;74.40;;;;;;5040398;28;792;-69
2022/11/02 03:43:35;;;;;;;;;;;20.50;74.30;;;;;;5035835;28;827;-68
2022/11/02 03:46:01;;;;;;;;;;;20.50;74.30;;;;;;5037794;28;1366;-69
2022/11/02 03:48:31;;;;;;;;;;;20.50;74.30;;;;;;5036087;28;988;-70
2022/11/02 03:50:57;;;;;;;;;;;20.50;74.40;;;;;;5038961;28;1918;-69
2022/11/02 03:53:26;;;;;;;;;;;20.50;74.40;;;;;;5037854;28;1094;-68
2022/11/02 03:55:53;;;;;;;;;;;20.50;74.40;;;;;;5020801;28;1279;-69
2022/11/02 03:58:19;;;;;;;;;;;20.50;74.40;;;;;;5020775;28;1194;-70
2022/11/02 04:00:46;;;;;;;;;;;20.50;74.40;;;;;;5038244;28;827;-68
2022/11/02 04:03:11;;;;;;;;;;;20.50;74.30;;;;;;5020685;28;899;-69
2022/11/02 04:05:37;;;;;;;;;;;20.50;74.30;;;;;;5037735;28;1349;-69
2022/11/02 04:08:21;;;;;;;;;;;20.50;74.40;;;;;;5040991;28;900;-70
2022/11/02 04:16:17;;;;;;;;;;;20.50;74.40;;;;;;5039878;28;1307;-69
2022/11/02 04:21:27;;;;;;;;;;;20.50;74.40;;;;;;5039721;28;1340;-69
2022/11/02 04:26:37;;;;;;;;;;;20.50;74.40;;;;;;5038206;28;1320;-71
2022/11/02 04:29:02;;;;;;;;;;;20.50;74.40;;;;;;5038801;28;875;-71
2022/11/02 04:31:28;;;;;;;;;;;20.50;74.40;;;;;;5019824;28;1909;-71
2022/11/02 04:33:53;;;;;;;;;;;20.50;74.40;;;;;;5039092;28;839;-71
2022/11/02 04:36:18;;;;;;;;;;;20.50;74.40;;;;;;5036465;28;1343;-71
2022/11/02 04:38:44;;;;;;;;;;;20.50;74.40;;;;;;5035032;28;887;-71
2022/11/02 04:43:54;;;;;;;;;;;20.50;74.40;;;;;;5035447;28;765;-71
2022/11/02 04:46:19;;;;;;;;;;;20.50;74.40;;;;;;5033536;28;1256;-71
2022/11/02 04:48:45;;;;;;;;;;;20.50;74.40;;;;;;5015668;28;859;-71
2022/11/02 04:51:10;;;;;;;;;;;20.50;74.40;;;;;;5037534;28;1973;-71
2022/11/02 04:53:35;;;;;;;;;;;20.50;74.40;;;;;;5038262;28;1022;-71
2022/11/02 04:56:01;;;;;;;;;;;20.50;74.40;;;;;;5035683;28;1268;-70
2022/11/02 04:58:26;;;;;;;;;;;20.50;74.40;;;;;;5017130;28;894;-70
2022/11/02 05:00:52;;;;;;;;;;;20.50;74.40;;;;;;5040445;28;934;-71
2022/11/02 05:03:17;;;;;;;;;;;20.50;74.40;;;;;;5036832;28;851;-71
2022/11/02 05:05:43;;;;;;;;;;;20.50;74.40;;;;;;5035142;28;1251;-69
2022/11/02 05:08:08;;;;;;;;;;;20.50;74.40;;;;;;5039663;28;879;-71
2022/11/02 05:10:34;;;;;;;;;;;20.50;74.40;;;;;;5033639;28;1894;-71
2022/11/02 05:12:59;;;;;;;;;;;20.50;74.40;;;;;;5039507;28;1006;-70
2022/11/02 05:15:25;;;;;;;;;;;20.50;74.30;;;;;;5033726;28;1361;-71
2022/11/02 05:17:50;;;;;;;;;;;20.50;74.30;;;;;;5038639;28;843;-70
2022/11/02 05:20:15;;;;;;;;;;;20.60;74.30;;;;;;5035806;28;935;-71
2022/11/02 05:22:41;;;;;;;;;;;20.60;74.20;;;;;;5038531;28;926;-71
2022/11/02 05:25:07;;;;;;;;;;;20.60;74.10;;;;;;5037462;28;1263;-71
2022/11/02 05:27:32;;;;;;;;;;;20.60;74.00;;;;;;5034292;28;1059;-71
2022/11/02 05:29:58;;;;;;;;;;;20.60;73.90;;;;;;5034085;28;1010;-71
2022/11/02 05:32:24;;;;;;;;;;;20.70;73.90;;;;;;5037896;28;1985;-70
2022/11/02 05:34:49;;;;;;;;;;;20.70;73.70;;;;;;5036114;28;1330;-72
2022/11/02 05:37:15;;;;;;;;;;;20.70;73.60;;;;;;5033918;28;1153;-71
2022/11/02 05:39:40;;;;;;;;;;;20.70;73.50;;;;;;5038303;28;844;-70
2022/11/02 05:42:06;;;;;;;;;;;20.70;73.50;;;;;;5036435;28;885;-70
2022/11/02 05:44:31;;;;;;;;;;;20.80;73.40;;;;;;5041295;28;1293;-70
2022/11/02 05:46:56;;;;;;;;;;;20.80;73.30;;;;;;5039135;28;895;-69
2022/11/02 05:49:22;;;;;;;;;;;20.80;73.20;;;;;;5037027;28;2163;-69
2022/11/02 05:51:48;;;;;;;;;;;20.80;73.10;;;;;;5038887;28;2117;-69
2022/11/02 05:54:13;;;;;;;;;;;20.80;73.80;;;;;;5037506;28;1548;-70
2022/11/02 05:56:39;;;;;;;;;;;20.80;73.10;;;;;;5036611;28;1411;-70
2022/11/02 05:59:04;;;;;;;;;;;20.80;73.00;;;;;;5037385;28;894;-72
2022/11/02 06:01:29;;;;;;;;;;;20.80;72.90;;;;;;5034729;28;1139;-71
2022/11/02 06:03:55;;;;;;;;;;;20.90;72.90;;;;;;5037938;28;1237;-69
2022/11/02 06:06:20;;;;;;;;;;;20.90;72.90;;;;;;5035620;28;1267;-70
2022/11/02 06:08:46;;;;;;;;;;;20.90;72.90;;;;;;5027901;28;974;-71
2022/11/02 06:11:12;;;;;;;;;;;21.00;73.00;;;;;;5020534;28;1894;-69
2022/11/02 06:13:37;;;;;;;;;;;21.00;72.90;;;;;;5038950;28;800;-71
2022/11/02 06:16:03;;;;;;;;;;;21.10;72.80;;;;;;5021853;28;1283;-71
2022/11/02 06:18:30;;;;;;;;;;;21.10;72.50;;;;;;5042942;28;859;-70
2022/11/02 06:20:56;;;;;;;;;;;21.20;72.50;;;;;;5041430;28;1295;-70
2022/11/02 06:23:22;;;;;;;;;;;21.30;72.40;;;;;;5040172;28;899;-71
2022/11/02 06:25:53;;;;;;;;;;;21.40;72.20;;;;;;5037179;28;1251;-71
2022/11/02 06:28:19;;;;;;;;;;;21.50;71.90;;;;;;5041167;28;819;-70
2022/11/02 06:30:44;;;;;;;;;;;21.60;71.60;;;;;;5041575;28;1906;-70
2022/11/02 06:33:10;;;;;;;;;;;21.70;71.30;;;;;;5041520;28;974;-70
2022/11/02 06:35:35;;;;;;;;;;;21.80;71.00;;;;;;5038246;28;1266;-70
2022/11/02 06:38:01;;;;;;;;;;;21.90;70.80;;;;;;5038161;28;925;-70
2022/11/02 06:40:27;;;;;;;;;;;22.00;70.50;;;;;;5043636;28;1021;-70
2022/11/02 06:42:56;;;;;;;;;;;22.00;70.20;;;;;;5038926;28;871;-69
2022/11/02 06:45:21;;;;;;;;;;;22.10;69.90;;;;;;5037409;28;1259;-70
2022/11/02 06:47:47;;;;;;;;;;;22.10;69.70;;;;;;5041672;28;1025;-70
2022/11/02 06:50:13;;;;;;;;;;;22.20;69.60;;;;;;5041310;28;1320;-69
2022/11/02 06:52:45;;;;;;;;;;;22.20;69.30;;;;;;5042503;28;1910;-70
2022/11/02 06:55:10;;;;;;;;;;;22.30;69.20;;;;;;5040948;28;1257;-70
2022/11/02 06:57:36;;;;;;;;;;;22.30;69.10;;;;;;5040566;28;879;-70
2022/11/02 07:00:03;;;;;;;;;;;22.30;68.90;;;;;;5043367;28;1038;-70
2022/11/02 07:02:29;;;;;;;;;;;22.40;68.80;;;;;;5022499;28;869;-70
2022/11/02 07:04:55;;;;;;;;;;;22.40;68.90;;;;;;5040667;28;1289;-69
2022/11/02 07:07:21;;;;;;;;;;;22.40;68.80;;;;;;5043879;28;816;-70
2022/11/02 07:09:46;;;;;;;;;;;22.40;68.80;;;;;;5040346;28;859;-69
2022/11/02 07:12:12;;;;;;;;;;;22.40;68.80;;;;;;5036718;28;1910;-69
2022/11/02 07:14:37;;;;;;;;;;;22.40;68.70;;;;;;5037929;28;1262;-71
2022/11/02 07:17:03;;;;;;;;;;;22.40;68.70;;;;;;5040279;28;1148;-70
2022/11/02 07:19:28;;;;;;;;;;;22.40;68.70;;;;;;5034563;28;832;-69
2022/11/02 07:21:53;;;;;;;;;;;22.40;68.70;;;;;;5035261;28;4336;-70
2022/11/02 07:24:19;;;;;;;;;;;22.40;68.70;;;;;;5039768;28;1376;-70
2022/11/02 07:26:46;;;;;;;;;;;22.40;68.60;;;;;;5037633;28;1257;-69
2022/11/02 07:29:12;;;;;;;;;;;22.40;68.50;;;;;;5038872;28;891;-71
2022/11/02 07:31:37;;;;;;;;;;;22.40;68.50;;;;;;5039326;28;1894;-71
2022/11/02 07:34:03;;;;;;;;;;;22.40;68.60;;;;;;5035930;28;1690;-69
2022/11/02 07:36:28;;;;;;;;;;;22.40;68.60;;;;;;5040936;28;1358;-68
2022/11/02 07:38:53;;;;;;;;;;;22.40;68.60;;;;;;5041708;28;971;-70
2022/11/02 07:41:19;;;;;;;;;;;22.40;68.60;;;;;;5038132;28;828;-70
2022/11/02 07:43:44;;;;;;;;;;;22.40;68.70;;;;;;5038058;28;864;-69
2022/11/02 07:46:10;;;;;;;;;;;22.40;68.70;;;;;;5039989;28;1271;-69
2022/11/02 07:48:35;;;;;;;;;;;22.30;68.70;;;;;;5037690;28;812;-70
2022/11/02 07:51:01;;;;;;;;;;;22.30;68.70;;;;;;5038837;28;1965;-70
2022/11/02 07:53:26;;;;;;;;;;;22.30;68.80;;;;;;5041382;28;1058;-69
2022/11/02 07:55:52;;;;;;;;;;;22.30;68.90;;;;;;5039877;28;1353;-69
2022/11/02 07:58:17;;;;;;;;;;;22.30;68.90;;;;;;5038891;28;957;-69
2022/11/02 08:00:43;;;;;;;;;;;22.30;69.00;;;;;;5037671;28;832;-70
2022/11/02 08:03:09;;;;;;;;;;;22.20;69.00;;;;;;5039476;28;921;-69
2022/11/02 08:05:35;;;;;;;;;;;22.20;69.10;;;;;;5038770;28;1216;-69
2022/11/02 08:08:01;;;;;;;;;;;22.20;69.10;;;;;;5024673;28;844;-69
2022/11/02 08:10:27;;;;;;;;;;;22.20;69.20;;;;;;5037861;28;799;-68
2022/11/02 08:12:55;;;;;;;;;;;22.20;69.20;;;;;;5041003;28;1906;-68
2022/11/02 08:15:21;;;;;;;;;;;22.20;69.30;;;;;;5033344;28;1393;-69
2022/11/02 08:17:47;;;;;;;;;;;22.20;69.90;;;;;;5023474;28;1627;-69
2022/11/02 08:20:12;;;;;;;;;;;22.20;70.10;;;;;;5040130;28;1247;-68
2022/11/02 08:22:38;;;;;;;;;;;22.20;70.30;;;;;;5038884;28;1070;-69
2022/11/02 08:25:04;;;;;;;;;;;22.20;70.50;;;;;;5037537;28;1272;-68
2022/11/02 08:27:29;;;;;;;;;;;22.20;70.60;;;;;;5040666;28;885;-68
2022/11/02 08:29:55;;;;;;;;;;;22.10;70.80;;;;;;5037525;28;993;-67
2022/11/02 08:32:20;;;;;;;;;;;22.20;71.00;;;;;;5034149;28;1926;-71
2022/11/02 08:34:46;;;;;;;;;;;22.10;71.10;;;;;;5036885;28;1346;-70
2022/11/02 08:37:11;;;;;;;;;;;22.10;71.20;;;;;;5036575;28;1068;-69
2022/11/02 08:39:36;;;;;;;;;;;22.10;71.30;;;;;;5035520;28;1005;-68
2022/11/02 08:42:02;;;;;;;;;;;22.10;71.50;;;;;;5033864;28;820;-70
2022/11/02 08:44:27;;;;;;;;;;;22.10;71.50;;;;;;5035384;28;1054;-68
2022/11/02 08:46:53;;;;;;;;;;;22.10;71.50;;;;;;5038343;28;1297;-69
2022/11/02 08:49:20;;;;;;;;;;;22.10;71.70;;;;;;5033674;28;864;-70
2022/11/02 08:51:45;;;;;;;;;;;22.10;71.70;;;;;;5037572;28;2094;-69
2022/11/02 08:54:11;;;;;;;;;;;22.10;71.80;;;;;;5041287;28;1318;-70
2022/11/02 08:56:36;;;;;;;;;;;22.10;71.80;;;;;;5039022;28;2081;-69
2022/11/02 08:59:02;;;;;;;;;;;22.10;72.00;;;;;;5040378;28;1060;-70
2022/11/02 09:01:27;;;;;;;;;;;22.10;72.00;;;;;;5041711;28;837;-69
2022/11/02 09:03:53;;;;;;;;;;;22.10;72.10;;;;;;5043957;28;900;-69
2022/11/02 09:06:18;;;;;;;;;;;22.10;72.00;;;;;;5035801;28;1256;-68
2022/11/02 09:08:43;;;;;;;;;;;22.10;72.00;;;;;;5037187;28;946;-69
2022/11/02 09:11:09;;;;;;;;;;;22.10;72.00;;;;;;5036530;28;1906;-70
2022/11/02 09:13:36;;;;;;;;;;;22.10;72.00;;;;;;5038202;28;1167;-72
2022/11/02 09:16:01;;;;;;;;;;;22.10;72.10;;;;;;5018468;28;1344;-70
2022/11/02 09:18:27;;;;;;;;;;;22.00;72.10;;;;;;5035897;28;1153;-69
2022/11/02 09:20:52;;;;;;;;;;;22.00;72.10;;;;;;5019764;28;1388;-70
2022/11/02 09:23:18;;;;;;;;;;;22.00;72.30;;;;;;5052978;28;883;-70
2022/11/02 09:25:43;;;;;;;;;;;22.00;72.50;;;;;;5039838;28;1353;-69
2022/11/02 09:28:09;;;;;;;;;;;22.00;72.50;;;;;;5032020;28;1097;-70
2022/11/02 09:30:34;;;;;;;;;;;22.00;72.50;;;;;;5040675;28;1536;-70
2022/11/02 09:33:01;;;;;;;;;;;22.00;72.60;;;;;;5035182;28;1910;-69
2022/11/02 09:35:33;;;;;;;;;;;22.00;72.60;;;;;;5037345;28;1267;-69
2022/11/02 09:37:58;;;;;;;;;;;22.00;72.60;;;;;;5039176;28;1065;-69
2022/11/02 09:40:27;;;;;;;;;;;22.00;72.70;;;;;;5039471;28;927;-69
2022/11/02 09:42:57;;;;;;;;;;;22.00;72.70;;;;;;5022139;28;1698;-70
2022/11/02 09:45:22;;;;;;;;;;;22.00;72.80;;;;;;5016520;28;1295;-69
2022/11/02 09:47:58;;;;;;;;;;;22.00;72.80;;;;;;5038940;28;955;-69
2022/11/02 09:50:25;;;;;;;;;;;22.00;73.00;;;;;;5043989;28;841;-70
2022/11/02 09:52:52;;;;;;;;;;;22.00;73.00;;;;;;5023695;28;1898;-69
2022/11/02 09:55:20;;;;;;;;;;;22.00;73.10;;;;;;5024913;28;1297;-70
2022/11/02 09:57:46;;;;;;;;;;;21.90;73.00;;;;;;5040295;28;812;-69
2022/11/02 10:00:12;;;;;;;;;;;22.00;73.10;;;;;;5042617;28;1331;-70
2022/11/02 10:02:40;;;;;;;;;;;22.00;73.10;;;;;;5038969;28;847;-70
2022/11/02 10:05:06;;;;;;;;;;;21.90;73.10;;;;;;5040826;28;1274;-70
2022/11/02 10:07:40;;;;;;;;;;;21.90;73.20;;;;;;5039255;28;859;-69
2022/11/02 10:10:15;;;;;;;;;;;21.90;73.30;;;;;;5040531;28;1041;-70
2022/11/02 10:12:47;;;;;;;;;;;21.90;73.30;;;;;;5039974;28;1959;-69
2022/11/02 10:15:18;;;;;;;;;;;21.90;73.40;;;;;;5034125;28;1368;-70
2022/11/02 10:17:43;;;;;;;;;;;21.90;73.40;;;;;;5022102;28;867;-69
2022/11/02 10:20:35;;;;;;;;;;;21.90;73.50;;;;;;5022143;28;1284;-70
2022/11/02 10:23:02;;;;;;;;;;;21.90;73.50;;;;;;5046720;28;1055;-70
2022/11/02 10:25:28;;;;;;;;;;;21.80;73.50;;;;;;5019915;28;1611;-69
2022/11/02 10:28:00;;;;;;;;;;;21.80;73.50;;;;;;5036327;28;870;-68
2022/11/02 10:30:25;;;;;;;;;;;21.80;73.60;;;;;;5040042;28;827;-69
2022/11/02 10:32:51;;;;;;;;;;;21.80;73.60;;;;;;5041062;28;1919;-70
2022/11/02 10:35:35;;;;;;;;;;;21.80;73.80;;;;;;5043194;28;1279;-70
2022/11/02 10:38:03;;;;;;;;;;;21.80;73.90;;;;;;5042286;28;1014;-69
2022/11/02 10:40:41;;;;;;;;;;;21.90;73.80;;;;;;5040462;28;966;-70
2022/11/02 10:43:14;;;;;;;;;;;21.90;73.60;;;;;;5040122;28;808;-69
2022/11/02 10:45:46;;;;;;;;;;;21.90;73.70;;;;;;5023985;28;1264;-69
2022/11/02 10:48:31;;;;;;;;;;;21.90;73.80;;;;;;5042012;28;812;-70
2022/11/02 10:50:59;;;;;;;;;;;21.90;73.80;;;;;;5036655;28;1969;-68
2022/11/02 10:53:24;;;;;;;;;;;21.80;74.00;;;;;;5037193;28;866;-69
2022/11/02 10:56:06;;;;;;;;;;;21.80;73.90;;;;;;5038283;28;1234;-70
2022/11/02 10:58:31;;;;;;;;;;;21.80;73.90;;;;;;5022516;28;891;-70
2022/11/02 11:01:04;;;;;;;;;;;21.90;74.80;;;;;;5036001;28;914;-69
2022/11/02 11:03:29;;;;;;;;;;;21.90;74.00;;;;;;5022403;28;1117;-69
2022/11/02 11:05:58;;;;;;;;;;;21.90;74.00;;;;;;5038344;28;1225;-70
2022/11/02 11:08:35;;;;;;;;;;;21.80;73.90;;;;;;5022384;28;942;-70
2022/11/02 11:11:19;;;;;;;;;;;21.80;74.00;;;;;;5022906;28;1898;-70
2022/11/02 11:14:04;;;;;;;;;;;21.80;74.00;;;;;;5039343;28;1216;-70
2022/11/02 11:16:46;;;;;;;;;;;21.80;74.10;;;;;;5037475;28;1259;-69
2022/11/02 11:19:17;;;;;;;;;;;21.80;74.10;;;;;;5039514;28;910;-70
2022/11/02 11:21:42;;;;;;;;;;;21.80;74.20;;;;;;5027007;28;1332;-69
2022/11/02 11:24:11;;;;;;;;;;;21.70;74.20;;;;;;5041009;28;867;-69
2022/11/02 11:26:36;;;;;;;;;;;21.70;74.30;;;;;;5040196;28;1301;-69
2022/11/02 11:29:01;;;;;;;;;;;21.70;74.40;;;;;;5035542;28;861;-70
2022/11/02 11:31:27;;;;;;;;;;;21.70;74.40;;;;;;5041246;28;1902;-70
2022/11/02 11:33:53;;;;;;;;;;;21.70;74.50;;;;;;5042401;28;1313;-69
2022/11/02 11:36:19;;;;;;;;;;;21.70;74.60;;;;;;5040619;28;1304;-69
2022/11/02 11:38:45;;;;;;;;;;;21.70;74.80;;;;;;5025654;28;962;-70
2022/11/02 11:41:11;;;;;;;;;;;21.70;74.80;;;;;;5039417;28;4732;-69
2022/11/02 11:43:37;;;;;;;;;;;21.70;74.80;;;;;;5036358;28;900;-70
2022/11/02 11:46:03;;;;;;;;;;;21.70;74.80;;;;;;5038636;28;1252;-70
2022/11/02 11:48:29;;;;;;;;;;;21.70;74.90;;;;;;5039736;28;1127;-69
2022/11/02 11:50:54;;;;;;;;;;;21.70;74.90;;;;;;5040882;28;1945;-70
2022/11/02 11:53:23;;;;;;;;;;;21.70;75.00;;;;;;5037241;28;874;-70
2022/11/02 11:55:52;;;;;;;;;;;21.70;74.90;;;;;;5040203;28;1286;-70
2022/11/02 11:58:27;;;;;;;;;;;21.70;74.90;;;;;;5038812;28;1628;-70
2022/11/02 12:01:06;;;;;;;;;;;21.70;75.00;;;;;;5018515;28;967;-69
2022/11/02 12:03:31;;;;;;;;;;;21.70;75.10;;;;;;5040457;28;867;-68
2022/11/02 12:06:15;;;;;;;;;;;21.70;75.20;;;;;;5035840;28;1283;-69
2022/11/02 12:08:47;;;;;;;;;;;21.70;75.20;;;;;;5038103;28;855;-70
2022/11/02 12:11:34;;;;;;;;;;;21.70;75.40;;;;;;5021509;28;1957;-69
2022/11/02 12:14:12;;;;;;;;;;;21.70;75.40;;;;;;5019738;28;982;-69
2022/11/02 12:16:53;;;;;;;;;;;21.70;75.60;;;;;;5019217;28;1250;-68
2022/11/02 12:19:18;;;;;;;;;;;21.70;75.70;;;;;;5039265;28;902;-68
2022/11/02 12:21:46;;;;;;;;;;;21.70;75.70;;;;;;5040667;28;1353;-70
2022/11/02 12:24:32;;;;;;;;;;;21.70;75.70;;;;;;5040130;28;2049;-70
2022/11/02 12:27:16;;;;;;;;;;;21.70;75.70;;;;;;5038999;28;1449;-70
2022/11/02 12:29:44;;;;;;;;;;;21.70;75.70;;;;;;5041828;28;1407;-71
2022/11/02 12:32:20;;;;;;;;;;;21.70;75.80;;;;;;5035260;28;2511;-70
2022/11/02 12:35:04;;;;;;;;;;;21.60;75.90;;;;;;5014570;28;1330;-68
2022/11/02 12:37:56;;;;;;;;;;;21.60;75.80;;;;;;5040239;28;833;-68
2022/11/02 12:40:22;;;;;;;;;;;21.60;75.80;;;;;;5020876;28;1278;-69
2022/11/02 12:42:50;;;;;;;;;;;21.60;75.80;;;;;;5035948;28;854;-70
2022/11/02 12:45:19;;;;;;;;;;;21.60;75.80;;;;;;5034090;28;1341;-70
2022/11/02 12:47:49;;;;;;;;;;;21.60;75.90;;;;;;5036184;28;905;-70
2022/11/02 12:50:14;;;;;;;;;;;21.60;75.90;;;;;;5021965;28;843;-70
2022/11/02 12:52:43;;;;;;;;;;;21.60;75.90;;;;;;5040532;28;1971;-68
2022/11/02 12:55:13;;;;;;;;;;;21.60;75.90;;;;;;5038666;28;1259;-68
2022/11/02 12:57:39;;;;;;;;;;;21.60;75.80;;;;;;5021403;28;1077;-68
2022/11/02 13:00:06;;;;;;;;;;;21.60;75.90;;;;;;5034415;28;1072;-69
2022/11/02 13:02:31;;;;;;;;;;;21.60;75.90;;;;;;5020291;28;824;-68
2022/11/02 13:04:56;;;;;;;;;;;21.60;76.00;;;;;;5040162;28;1356;-66
2022/11/02 13:07:25;;;;;;;;;;;21.60;75.50;;;;;;5040004;28;1395;-68
2022/11/02 13:10:13;;;;;;;;;;;21.60;71.70;;;;;;5024875;28;1263;-69
2022/11/02 13:12:39;;;;;;;;;;;21.50;69.30;;;;;;5037731;28;1903;-66
2022/11/02 13:15:04;;;;;;;;;;;21.50;68.70;;;;;;5031940;28;1203;-66
2022/11/02 13:17:33;;;;;;;;;;;21.40;67.20;;;;;;5039362;28;1033;-67
2022/11/02 13:20:05;;;;;;;;;;;21.40;66.10;;;;;;5018868;28;1038;-66
2022/11/02 13:22:34;;;;;;;;;;;21.30;65.50;;;;;;5022764;28;797;-67
2022/11/02 13:25:06;;;;;;;;;;;21.30;64.80;;;;;;5023354;28;1225;-66
2022/11/02 13:27:35;;;;;;;;;;;21.30;64.50;;;;;;5044470;28;971;-68
2022/11/02 13:30:01;;;;;;;;;;;21.20;63.80;;;;;;5043053;28;919;-69
2022/11/02 13:32:50;;;;;;;;;;;21.20;63.50;;;;;;5021056;28;1960;-68
2022/11/02 13:35:19;;;;;;;;;;;21.20;63.20;;;;;;5034257;28;1418;-67
2022/11/02 13:37:46;;;;;;;;;;;21.20;62.80;;;;;;5021061;28;1943;-68
2022/11/02 13:40:19;;;;;;;;;;;21.10;62.60;;;;;;5043098;28;883;-69
2022/11/02 13:42:48;;;;;;;;;;;21.10;62.50;;;;;;5042878;28;898;-69
2022/11/02 13:45:30;;;;;;;;;;;21.10;62.50;;;;;;5023934;28;1271;-68
2022/11/02 13:48:14;;;;;;;;;;;21.10;62.80;;;;;;5023312;28;899;-68
2022/11/02 13:50:41;;;;;;;;;;;21.00;62.70;;;;;;5039520;28;843;-67
2022/11/02 13:53:07;;;;;;;;;;;21.00;62.10;;;;;;5027607;28;1907;-66
2022/11/02 13:55:53;;;;;;;;;;;21.00;62.00;;;;;;5042499;28;1328;-66
2022/11/02 13:58:31;;;;;;;;;;;21.00;61.80;;;;;;5041618;28;850;-66
2022/11/02 14:01:03;;;;;;;;;;;21.00;61.50;;;;;;5044723;28;820;-68
2022/11/02 14:03:30;;;;;;;;;;;21.00;61.30;;;;;;5040615;28;969;-68
2022/11/02 14:05:56;;;;;;;;;;;20.90;61.50;;;;;;5024551;28;1262;-69
2022/11/02 14:08:24;;;;;;;;;;;20.90;61.60;;;;;;5042362;28;819;-68
2022/11/02 14:11:02;;;;;;;;;;;20.90;61.70;;;;;;5040628;28;910;-68
2022/11/02 14:13:50;;;;;;;;;;;20.90;61.20;;;;;;5041974;28;1029;-68
2022/11/02 14:16:34;;;;;;;;;;;20.90;61.30;;;;;;5043020;28;1191;-67
2022/11/02 14:19:13;;;;;;;;;;;20.90;62.00;;;;;;5041070;28;1171;-69
2022/11/02 14:21:39;;;;;;;;;;;20.80;62.00;;;;;;5043132;28;1228;-68
2022/11/02 14:24:24;;;;;;;;;;;20.90;61.70;;;;;;5041438;28;1261;-68
2022/11/02 14:26:53;;;;;;;;;;;20.80;61.40;;;;;;5043647;28;1377;-69
2022/11/02 14:29:38;;;;;;;;;;;20.80;62.00;;;;;;5041375;28;1284;-68
2022/11/02 14:32:09;;;;;;;;;;;20.80;61.80;;;;;;5044536;28;1965;-68
2022/11/02 14:34:53;;;;;;;;;;;20.80;61.60;;;;;;5023624;28;1464;-67
2022/11/02 14:37:22;;;;;;;;;;;20.80;61.90;;;;;;5041431;28;1330;-68
2022/11/02 14:39:57;;;;;;;;;;;20.80;60.70;;;;;;5042341;28;1108;-69
2022/11/02 14:42:29;;;;;;;;;;;20.80;60.80;;;;;;5039575;28;930;-68
2022/11/02 14:44:59;;;;;;;;;;;20.80;60.80;;;;;;5038374;28;1354;-67
2022/11/02 14:47:26;;;;;;;;;;;20.80;60.30;;;;;;5023250;28;1122;-68
2022/11/02 14:49:54;;;;;;;;;;;20.70;60.90;;;;;;5038620;28;835;-68
2022/11/02 14:52:20;;;;;;;;;;;20.70;60.70;;;;;;5043486;28;1918;-68
2022/11/02 14:55:05;;;;;;;;;;;20.70;60.90;;;;;;5038622;28;1267;-69
2022/11/02 14:57:34;;;;;;;;;;;20.70;60.90;;;;;;5022534;28;951;-69